createdAt,value
2019-04-22T00:01:45.705Z,13.17
2019-04-22T00:05:04.834Z,14.50
2019-04-22T00:08:29.688Z,14.33
2019-04-22T00:11:35.543Z,15.83
2019-04-22T00:14:40.561Z,14.77
2019-04-22T00:18:01.686Z,14.97
2019-04-22T00:21:07.208Z,15.30
2019-04-22T00:24:11.589Z,15.33
2019-04-22T00:27:28.123Z,17.00
2019-04-22T00:30:47.179Z,17.97
2019-04-22T00:33:41.936Z,15.87
2019-04-22T00:36:57.395Z,14.73
2019-04-22T00:39:57.525Z,16.90
2019-04-22T00:43:16.476Z,16.93
2019-04-22T00:46:27.585Z,17.73
2019-04-22T00:50:07.842Z,16.80
2019-04-22T00:52:40.447Z,17.43
2019-04-22T00:59:21.987Z,16.53
2019-04-22T01:02:27.902Z,17.53
2019-04-22T01:05:34.495Z,17.67
2019-04-22T01:08:53.055Z,16.83
2019-04-22T01:11:56.294Z,18.10
2019-04-22T01:15:11.908Z,17.63
2019-04-22T01:18:09.810Z,18.10
2019-04-22T01:24:27.810Z,18.37
2019-04-22T01:27:31.039Z,19.43
2019-04-22T01:30:36.173Z,18.67
2019-04-22T01:33:44.179Z,19.60
2019-04-22T01:37:03.489Z,19.87
2019-04-22T01:40:23.821Z,20.30
2019-04-22T01:43:33.378Z,20.90
2019-04-22T01:46:45.125Z,19.57
2019-04-22T01:49:46.415Z,19.20
2019-04-22T01:53:00.902Z,21.43
2019-04-22T01:56:08.906Z,23.30
2019-04-22T01:59:11.267Z,21.10
2019-04-22T02:02:30.947Z,23.67
2019-04-22T02:05:35.750Z,23.50
2019-04-22T02:12:00.550Z,23.23
2019-04-22T02:15:07.945Z,23.03
2019-04-22T02:18:17.992Z,23.70
2019-04-22T02:21:24.890Z,23.30
2019-04-22T02:24:39.756Z,22.27
2019-04-22T02:27:51.458Z,23.03
2019-04-22T02:31:18.725Z,22.87
2019-04-22T02:37:18.778Z,23.83
2019-04-22T02:40:30.328Z,23.30
2019-04-22T02:43:46.561Z,23.97
2019-04-22T02:53:00.956Z,32.30
2019-04-22T02:59:28.388Z,27.50
2019-04-22T03:02:50.580Z,30.43
2019-04-22T03:05:45.500Z,41.20
2019-04-22T03:08:56.487Z,32.20
2019-04-22T03:12:14.376Z,40.90
2019-04-22T03:18:20.378Z,34.17
2019-04-22T03:21:27.959Z,30.70
2019-04-22T03:25:07.638Z,28.27
2019-04-22T03:27:42.806Z,28.10
2019-04-22T03:35:26.981Z,30.07
2019-04-22T03:41:13.368Z,34.90
2019-04-22T03:53:55.938Z,24.20
2019-04-22T04:00:08.473Z,25.87
2019-04-22T04:03:12.076Z,25.30
2019-04-22T04:06:29.715Z,24.77
2019-04-22T04:09:44.326Z,24.80
2019-04-22T04:12:49.300Z,26.53
2019-04-22T04:16:03.244Z,22.43
2019-04-22T04:19:31.438Z,24.60
2019-04-22T04:22:21.431Z,23.50
2019-04-22T04:31:41.370Z,22.03
2019-04-22T04:44:25.476Z,40.50
2019-04-22T04:50:38.567Z,35.00
2019-04-22T04:53:41.787Z,34.00
2019-04-22T04:56:57.062Z,34.23
2019-04-22T05:06:33.125Z,21.97
2019-04-22T05:09:44.810Z,21.93
2019-04-22T05:12:56.805Z,21.00
2019-04-22T05:16:03.129Z,20.30
2019-04-22T05:18:59.194Z,17.10
2019-04-22T05:22:07.779Z,18.23
2019-04-22T05:28:23.911Z,18.07
2019-04-22T05:31:38.904Z,18.50
2019-04-22T05:34:41.225Z,17.20
2019-04-22T05:40:56.395Z,17.50
2019-04-22T05:44:09.341Z,18.30
2019-04-22T05:47:17.831Z,19.47
2019-04-22T05:50:22.824Z,18.63
2019-04-22T05:53:35.659Z,20.40
2019-04-22T05:57:04.006Z,19.47
2019-04-22T06:03:16.720Z,20.33
2019-04-22T06:06:15.054Z,13.60
2019-04-22T06:09:26.040Z,17.47
2019-04-22T06:12:26.552Z,20.00
2019-04-22T06:15:37.569Z,20.97
2019-04-22T06:18:58.285Z,21.40
2019-04-22T06:22:11.442Z,21.43
2019-04-22T06:25:23.034Z,19.60
2019-04-22T06:28:31.562Z,23.50
2019-04-22T06:34:42.259Z,23.23
2019-04-22T06:38:12.508Z,22.10
2019-04-22T06:41:04.231Z,22.53
2019-04-22T06:44:10.983Z,21.20
2019-04-22T06:47:27.364Z,22.60
2019-04-22T06:50:33.932Z,19.40
2019-04-22T06:53:37.449Z,21.23
2019-04-22T06:56:49.226Z,23.00
2019-04-22T07:00:00.451Z,23.63
2019-04-22T07:03:31.623Z,17.90
2019-04-22T07:06:13.126Z,28.17
2019-04-22T07:12:36.421Z,22.70
2019-04-22T07:18:54.985Z,24.50
2019-04-22T07:22:07.685Z,24.70
2019-04-22T07:25:12.815Z,22.17
2019-04-22T07:28:20.269Z,22.23
2019-04-22T07:31:49.772Z,24.53
2019-04-22T07:34:39.981Z,23.23
2019-04-22T07:37:48.295Z,23.40
2019-04-22T07:40:56.263Z,23.37
2019-04-22T07:50:44.474Z,25.93
2019-04-22T07:53:33.517Z,26.53
2019-04-22T07:56:53.953Z,26.67
2019-04-22T08:00:00.994Z,27.97
2019-04-22T08:03:08.828Z,24.60
2019-04-22T08:06:16.782Z,25.97
2019-04-22T08:09:34.016Z,20.87
2019-04-22T08:12:39.188Z,22.90
2019-04-22T08:15:51.205Z,24.27
2019-04-22T08:19:00.274Z,21.90
2019-04-22T08:22:05.898Z,22.07
2019-04-22T08:25:09.720Z,23.30
2019-04-22T08:28:26.217Z,22.90
2019-04-22T08:31:35.488Z,20.43
2019-04-22T08:34:38.880Z,18.23
2019-04-22T08:37:51.041Z,19.23
2019-04-22T08:44:56.777Z,19.17
2019-04-22T08:47:36.027Z,21.17
2019-04-22T08:50:44.298Z,21.97
2019-04-22T08:53:59.785Z,21.90
2019-04-22T09:00:17.801Z,16.83
2019-04-22T09:03:23.948Z,22.60
2019-04-22T09:06:49.391Z,23.90
2019-04-22T09:09:47.260Z,24.03
2019-04-22T09:16:02.251Z,24.80
2019-04-22T09:19:22.443Z,24.53
2019-04-22T09:22:16.948Z,23.70
2019-04-22T09:25:34.585Z,22.33
2019-04-22T09:28:44.720Z,21.13
2019-04-22T09:31:57.093Z,20.57
2019-04-22T09:34:56.281Z,19.37
2019-04-22T09:41:25.716Z,16.53
2019-04-22T09:44:34.773Z,17.40
2019-04-22T09:47:40.079Z,17.40
2019-04-22T09:50:48.180Z,15.30
2019-04-22T09:54:01.163Z,13.00
2019-04-22T09:57:06.997Z,11.47
2019-04-22T10:00:13.933Z,11.33
2019-04-22T10:03:29.692Z,12.13
2019-04-22T10:10:03.448Z,10.57
2019-04-22T10:13:12.648Z,6.47
2019-04-22T10:16:09.045Z,7.43
2019-04-22T10:19:11.942Z,5.03
2019-04-22T10:22:29.082Z,6.10
2019-04-22T10:25:32.837Z,6.70
2019-04-22T10:28:44.617Z,5.23
2019-04-22T10:31:49.765Z,4.80
2019-04-22T10:34:44.477Z,4.80
2019-04-22T10:37:46.181Z,4.87
2019-04-22T10:40:54.556Z,5.20
2019-04-22T10:44:03.498Z,5.83
2019-04-22T10:47:13.873Z,5.43
2019-04-22T10:50:25.313Z,5.33
2019-04-22T10:53:33.371Z,5.67
2019-04-22T10:56:41.186Z,3.97
2019-04-22T10:59:50.310Z,5.23
2019-04-22T11:02:58.060Z,4.80
2019-04-22T11:06:07.307Z,4.67
2019-04-22T11:09:16.308Z,5.07
2019-04-22T11:12:28.029Z,3.80
2019-04-22T11:15:34.773Z,3.83
2019-04-22T11:18:43.419Z,3.77
2019-04-22T11:22:03.799Z,4.57
2019-04-22T11:25:01.287Z,5.10
2019-04-22T11:28:09.766Z,4.80
2019-04-22T11:31:18.697Z,4.43
2019-04-22T11:34:26.941Z,5.20
2019-04-22T11:37:34.944Z,4.33
2019-04-22T11:40:47.960Z,5.10
2019-04-22T11:43:51.649Z,5.83
2019-04-22T11:46:59.257Z,4.90
2019-04-22T11:50:08.119Z,4.77
2019-04-22T11:53:16.682Z,5.80
2019-04-22T11:56:25.183Z,5.60
2019-04-22T11:59:33.030Z,5.40
2019-04-22T12:02:41.000Z,5.27
2019-04-22T12:05:49.905Z,4.80
2019-04-22T12:08:57.681Z,4.10
2019-04-22T12:12:05.753Z,3.60
2019-04-22T12:15:15.087Z,4.00
2019-04-22T12:18:22.849Z,3.77
2019-04-22T12:21:31.100Z,4.20
2019-04-22T12:24:40.457Z,3.83
2019-04-22T12:27:48.185Z,2.90
2019-04-22T12:30:55.649Z,8.03
2019-04-22T12:34:03.676Z,3.80
2019-04-22T12:37:17.438Z,3.50
2019-04-22T12:40:33.832Z,3.70
2019-04-22T12:43:31.711Z,3.67
2019-04-22T12:46:39.836Z,3.67
2019-04-22T12:49:57.127Z,3.20
2019-04-22T12:53:02.391Z,4.13
2019-04-22T12:56:07.062Z,3.37
2019-04-22T12:59:17.642Z,2.57
2019-04-22T13:02:29.032Z,3.67
2019-04-22T13:05:37.609Z,3.13
2019-04-22T13:08:47.809Z,3.27
2019-04-22T13:11:55.412Z,3.67
2019-04-22T13:15:07.874Z,3.80
2019-04-22T13:18:26.473Z,3.70
2019-04-22T13:21:24.688Z,4.30
2019-04-22T13:24:32.369Z,3.10
2019-04-22T13:27:39.866Z,3.30
2019-04-22T13:30:48.639Z,3.00
2019-04-22T13:33:59.714Z,3.30
2019-04-22T13:37:05.522Z,4.70
2019-04-22T13:40:16.929Z,7.70
2019-04-22T13:43:24.999Z,5.40
2019-04-22T13:46:34.066Z,4.47
2019-04-22T13:50:18.202Z,5.50
2019-04-22T13:53:28.966Z,4.60
2019-04-22T13:56:21.596Z,3.93
2019-04-22T13:59:20.493Z,4.30
2019-04-22T14:02:34.750Z,3.60
2019-04-22T14:05:42.668Z,4.10
2019-04-22T14:08:51.669Z,3.20
2019-04-22T14:12:05.183Z,4.43
2019-04-22T14:15:09.838Z,5.10
2019-04-22T14:18:18.976Z,3.30
2019-04-22T14:21:27.938Z,3.33
2019-04-22T14:24:36.443Z,4.50
2019-04-22T14:27:51.364Z,4.30
2019-04-22T14:30:54.638Z,3.77
2019-04-22T14:34:05.385Z,4.53
2019-04-22T14:37:12.036Z,4.70
2019-04-22T14:40:22.043Z,4.90
2019-04-22T14:43:57.929Z,4.50
2019-04-22T14:47:10.942Z,4.53
2019-04-22T14:50:07.976Z,3.83
2019-04-22T14:53:15.725Z,2.93
2019-04-22T14:56:08.357Z,5.27
2019-04-22T14:59:16.717Z,5.10
2019-04-22T15:02:25.542Z,5.73
2019-04-22T15:05:34.377Z,5.93
2019-04-22T15:08:42.704Z,7.13
2019-04-22T15:11:58.268Z,6.90
2019-04-22T15:15:01.632Z,6.60
2019-04-22T15:18:23.988Z,6.10
2019-04-22T15:21:32.466Z,7.13
2019-04-22T15:24:40.720Z,6.00
2019-04-22T15:27:48.419Z,7.33
2019-04-22T15:30:57.361Z,6.27
2019-04-22T15:34:06.724Z,7.23
2019-04-22T15:37:15.965Z,7.10
2019-04-22T15:40:24.880Z,6.13
2019-04-22T15:43:36.626Z,6.67
2019-04-22T15:46:42.763Z,7.43
2019-04-22T15:49:50.258Z,5.97
2019-04-22T15:53:00.739Z,7.00
2019-04-22T15:56:08.408Z,6.30
2019-04-22T15:59:32.638Z,7.00
2019-04-22T16:02:25.675Z,6.50
2019-04-22T16:05:36.409Z,7.20
2019-04-22T16:08:45.826Z,6.50
2019-04-22T16:11:54.053Z,6.60
2019-04-22T16:15:03.627Z,6.50
2019-04-22T16:18:14.630Z,7.00
2019-04-22T16:21:30.263Z,6.80
2019-04-22T16:24:47.927Z,6.93
2019-04-22T16:27:56.445Z,7.13
2019-04-22T16:31:04.247Z,6.93
2019-04-22T16:34:15.520Z,7.97
2019-04-22T16:37:23.303Z,7.57
2019-04-22T16:40:32.649Z,7.37
2019-04-22T16:43:42.833Z,8.70
2019-04-22T16:46:51.913Z,8.53
2019-04-22T16:50:01.665Z,6.93
2019-04-22T16:53:10.215Z,7.60
2019-04-22T16:56:17.993Z,6.53
2019-04-22T16:59:26.746Z,6.90
2019-04-22T17:02:56.401Z,5.93
2019-04-22T17:06:14.518Z,7.20
2019-04-22T17:09:23.678Z,7.50
2019-04-22T17:12:41.850Z,6.20
2019-04-22T17:15:41.618Z,6.33
2019-04-22T17:18:50.055Z,6.83
2019-04-22T17:21:59.559Z,6.57
2019-04-22T17:25:08.869Z,7.67
2019-04-22T17:28:17.473Z,7.73
2019-04-22T17:31:24.979Z,6.63
2019-04-22T17:34:33.732Z,5.50
2019-04-22T17:37:42.777Z,6.20
2019-04-22T17:41:08.689Z,5.60
2019-04-22T17:44:41.389Z,6.00
2019-04-22T17:47:50.637Z,6.90
2019-04-22T17:51:16.559Z,6.43
2019-04-22T17:54:21.541Z,6.47
2019-04-22T17:57:27.842Z,5.93
2019-04-22T18:00:43.389Z,7.17
2019-04-22T18:03:38.553Z,6.30
2019-04-22T18:07:05.731Z,7.97
2019-04-22T18:10:27.233Z,8.50
2019-04-22T18:13:25.099Z,8.50
2019-04-22T18:16:31.965Z,9.37
2019-04-22T18:19:35.132Z,8.07
2019-04-22T18:22:39.631Z,8.50
2019-04-22T18:25:57.654Z,9.47
2019-04-22T18:29:14.550Z,7.30
2019-04-22T18:32:09.999Z,9.60
2019-04-22T18:35:32.432Z,11.13
2019-04-22T18:38:46.375Z,9.50
2019-04-22T18:41:48.936Z,10.70
2019-04-22T18:45:20.280Z,8.70
2019-04-22T18:48:04.763Z,9.93
2019-04-22T18:51:29.253Z,10.10
2019-04-22T18:54:55.436Z,9.97
2019-04-22T18:58:02.729Z,9.07
2019-04-22T19:00:55.029Z,10.03
2019-04-22T19:04:11.649Z,10.73
2019-04-22T19:07:42.475Z,9.77
2019-04-22T19:10:55.714Z,9.60
2019-04-22T19:14:03.744Z,9.80
2019-04-22T19:17:10.879Z,10.27
2019-04-22T19:20:15.625Z,9.83
2019-04-22T19:23:28.492Z,11.80
2019-04-22T19:26:44.265Z,10.07
2019-04-22T19:29:51.356Z,10.07
2019-04-22T19:33:02.748Z,11.07
2019-04-22T19:36:07.505Z,8.60
2019-04-22T19:39:10.387Z,10.50
2019-04-22T19:42:30.503Z,9.10
2019-04-22T19:45:32.716Z,8.97
2019-04-22T19:48:45.726Z,8.03
2019-04-22T19:52:05.869Z,9.53
2019-04-22T19:55:07.589Z,9.37
2019-04-22T19:58:09.334Z,9.10
2019-04-22T20:01:45.604Z,8.70
2019-04-22T20:05:02.758Z,9.90
2019-04-22T20:08:12.597Z,8.27
2019-04-22T20:11:17.076Z,8.23
2019-04-22T20:14:28.121Z,7.83
2019-04-22T20:17:45.475Z,8.83
2019-04-22T20:20:46.659Z,7.50
2019-04-22T20:23:47.269Z,8.07
2019-04-22T20:27:05.633Z,6.10
2019-04-22T20:30:17.183Z,7.13
2019-04-22T20:33:29.262Z,8.40
2019-04-22T20:36:53.695Z,7.90
2019-04-22T20:39:48.813Z,7.67
2019-04-22T20:46:05.885Z,8.40
2019-04-22T20:49:15.207Z,7.60
2019-04-22T20:52:26.187Z,8.17
2019-04-22T20:55:25.719Z,6.33
2019-04-22T20:58:42.525Z,7.67
2019-04-22T21:01:47.698Z,7.80
2019-04-22T21:04:47.779Z,9.13
2019-04-22T21:08:08.110Z,7.50
2019-04-22T21:11:14.432Z,7.47
2019-04-22T21:14:19.574Z,6.70
2019-04-22T21:17:36.190Z,6.63
2019-04-22T21:20:51.700Z,6.60
2019-04-22T21:23:47.690Z,7.67
2019-04-22T21:27:08.844Z,7.20
2019-04-22T21:30:03.297Z,5.83
2019-04-22T21:33:16.285Z,7.53
2019-04-22T21:36:40.375Z,7.67
2019-04-22T21:39:35.332Z,7.37
2019-04-22T21:42:55.877Z,7.00
2019-04-22T21:46:07.159Z,5.70
2019-04-22T21:49:10.860Z,7.13
2019-04-22T21:52:19.732Z,6.40
2019-04-22T21:55:31.801Z,6.67
2019-04-22T21:58:43.661Z,8.67
2019-04-22T22:02:00.116Z,7.67
2019-04-22T22:05:01.928Z,7.70
2019-04-22T22:08:23.489Z,7.70
2019-04-22T22:11:24.127Z,7.17
2019-04-22T22:14:33.519Z,7.67
2019-04-22T22:17:42.247Z,7.50
2019-04-22T22:21:12.659Z,7.60
2019-04-22T22:24:04.256Z,7.07
2019-04-22T22:27:14.364Z,8.23
2019-04-22T22:30:45.842Z,6.30
2019-04-22T22:33:31.174Z,6.20
2019-04-22T22:36:33.550Z,7.00
2019-04-22T22:39:41.742Z,6.33
2019-04-22T22:42:41.901Z,7.13
2019-04-22T22:45:55.597Z,7.03
2019-04-22T22:49:18.553Z,6.87
2019-04-22T22:52:48.942Z,6.80
2019-04-22T22:55:37.884Z,6.10
2019-04-22T22:58:45.344Z,5.90
2019-04-22T23:01:52.663Z,6.57
2019-04-22T23:05:05.875Z,6.30
2019-04-22T23:08:17.302Z,7.60
2019-04-22T23:11:40.364Z,6.70
2019-04-22T23:14:34.323Z,6.93
2019-04-22T23:17:25.944Z,6.43
2019-04-22T23:20:34.383Z,6.70
2019-04-22T23:24:01.584Z,6.87
2019-04-22T23:27:10.187Z,6.90
2019-04-22T23:30:30.096Z,6.33
2019-04-22T23:33:52.639Z,6.17
2019-04-22T23:37:12.139Z,5.07
2019-04-22T23:40:38.344Z,6.33
2019-04-22T23:43:34.028Z,6.63
2019-04-22T23:46:55.371Z,6.90
2019-04-22T23:50:09.106Z,6.53
2019-04-22T23:53:57.226Z,6.37
2019-04-22T23:56:43.456Z,6.33
